sensor_id;sensor_type;location;lat;lon;timestamp;pressure;altitude;pressure_sealevel;temperature;humidity
75627;BME280;67372;49.404;11.034;2024-01-30T00:02:16;99600.25;;;-0.16;78.18
75627;BME280;67372;49.404;11.034;2024-01-30T00:04:42;99593.78;;;-0.23;78.96
75627;BME280;67372;49.404;11.034;2024-01-30T00:07:09;99595.78;;;-0.27;79.43
75627;BME280;67372;49.404;11.034;2024-01-30T00:09:35;99591.94;;;-0.34;81.46
75627;BME280;67372;49.404;11.034;2024-01-30T00:12:02;99596.81;;;-0.41;82.49
75627;BME280;67372;49.404;11.034;2024-01-30T00:14:28;99589.16;;;-0.44;82.59
75627;BME280;67372;49.404;11.034;2024-01-30T00:16:55;99592.75;;;-0.45;81.47
75627;BME280;67372;49.404;11.034;2024-01-30T00:19:21;99598.81;;;-0.44;82.60
75627;BME280;67372;49.404;11.034;2024-01-30T00:21:48;99597.34;;;-0.48;84.79
75627;BME280;67372;49.404;11.034;2024-01-30T00:24:14;99591.38;;;-0.50;85.02
75627;BME280;67372;49.404;11.034;2024-01-30T00:26:40;99591.25;;;-0.49;83.85
75627;BME280;67372;49.404;11.034;2024-01-30T00:29:07;99591.19;;;-0.47;84.76
75627;BME280;67372;49.404;11.034;2024-01-30T00:31:33;99586.13;;;-0.50;84.76
75627;BME280;67372;49.404;11.034;2024-01-30T00:34:00;99583.53;;;-0.50;85.01
75627;BME280;67372;49.404;11.034;2024-01-30T00:36:26;99585.06;;;-0.48;84.59
75627;BME280;67372;49.404;11.034;2024-01-30T00:38:53;99582.44;;;-0.48;84.65
75627;BME280;67372;49.404;11.034;2024-01-30T00:41:19;99575.34;;;-0.46;84.96
75627;BME280;67372;49.404;11.034;2024-01-30T00:43:45;99570.09;;;-0.46;83.98
75627;BME280;67372;49.404;11.034;2024-01-30T00:46:12;99574.28;;;-0.43;82.61
75627;BME280;67372;49.404;11.034;2024-01-30T00:48:38;99571.44;;;-0.40;82.54
75627;BME280;67372;49.404;11.034;2024-01-30T00:51:05;99573.94;;;-0.39;82.67
75627;BME280;67372;49.404;11.034;2024-01-30T00:53:31;99576.44;;;-0.37;82.37
75627;BME280;67372;49.404;11.034;2024-01-30T00:55:57;99577.16;;;-0.35;82.34
75627;BME280;67372;49.404;11.034;2024-01-30T00:58:24;99574.19;;;-0.31;81.76
75627;BME280;67372;49.404;11.034;2024-01-30T01:00:50;99568.59;;;-0.26;80.86
75627;BME280;67372;49.404;11.034;2024-01-30T01:03:17;99568.41;;;-0.23;80.21
75627;BME280;67372;49.404;11.034;2024-01-30T01:05:43;99569.25;;;-0.22;80.91
75627;BME280;67372;49.404;11.034;2024-01-30T01:08:10;99571.22;;;-0.26;81.56
75627;BME280;67372;49.404;11.034;2024-01-30T01:10:36;99574.09;;;-0.29;81.39
75627;BME280;67372;49.404;11.034;2024-01-30T01:13:02;99575.16;;;-0.32;83.24
75627;BME280;67372;49.404;11.034;2024-01-30T01:15:29;99571.91;;;-0.35;83.47
75627;BME280;67372;49.404;11.034;2024-01-30T01:17:56;99576.31;;;-0.36;82.53
75627;BME280;67372;49.404;11.034;2024-01-30T01:20:22;99575.38;;;-0.35;83.63
75627;BME280;67372;49.404;11.034;2024-01-30T01:22:49;99565.97;;;-0.37;84.08
75627;BME280;67372;49.404;11.034;2024-01-30T01:25:15;99571.91;;;-0.35;83.37
75627;BME280;67372;49.404;11.034;2024-01-30T01:27:42;99564.91;;;-0.35;82.50
75627;BME280;67372;49.404;11.034;2024-01-30T01:30:10;99571.09;;;-0.36;84.94
75627;BME280;67372;49.404;11.034;2024-01-30T01:32:36;99573.72;;;-0.36;84.91
75627;BME280;67372;49.404;11.034;2024-01-30T01:35:03;99569.31;;;-0.35;84.82
75627;BME280;67372;49.404;11.034;2024-01-30T01:37:30;99562.38;;;-0.36;84.46
75627;BME280;67372;49.404;11.034;2024-01-30T01:39:56;99564.91;;;-0.35;84.92
75627;BME280;67372;49.404;11.034;2024-01-30T01:42:23;99557.75;;;-0.33;84.38
75627;BME280;67372;49.404;11.034;2024-01-30T01:44:49;99547.03;;;-0.29;83.68
75627;BME280;67372;49.404;11.034;2024-01-30T01:47:15;99539.06;;;-0.28;83.83
75627;BME280;67372;49.404;11.034;2024-01-30T01:49:42;99549.66;;;-0.29;84.10
75627;BME280;67372;49.404;11.034;2024-01-30T01:52:09;99545.25;;;-0.29;84.20
75627;BME280;67372;49.404;11.034;2024-01-30T01:54:36;99541.66;;;-0.28;83.28
75627;BME280;67372;49.404;11.034;2024-01-30T01:57:03;99538.81;;;-0.25;83.74
75627;BME280;67372;49.404;11.034;2024-01-30T01:59:30;99540.59;;;-0.25;83.33
75627;BME280;67372;49.404;11.034;2024-01-30T02:01:56;99541.34;;;-0.23;82.78
75627;BME280;67372;49.404;11.034;2024-01-30T02:04:23;99548.16;;;-0.21;82.66
75627;BME280;67372;49.404;11.034;2024-01-30T02:06:49;99534.09;;;-0.20;82.31
75627;BME280;67372;49.404;11.034;2024-01-30T02:09:16;99528.63;;;-0.17;81.95
75627;BME280;67372;49.404;11.034;2024-01-30T02:11:42;99531.22;;;-0.17;81.89
75627;BME280;67372;49.404;11.034;2024-01-30T02:14:09;99531.72;;;-0.12;81.99
75627;BME280;67372;49.404;11.034;2024-01-30T02:16:35;99540.19;;;-0.08;81.65
75627;BME280;67372;49.404;11.034;2024-01-30T02:19:02;99545.06;;;-0.04;81.39
75627;BME280;67372;49.404;11.034;2024-01-30T02:21:28;99550.09;;;-0.01;81.22
75627;BME280;67372;49.404;11.034;2024-01-30T02:23:55;99543.41;;;-0.05;80.81
75627;BME280;67372;49.404;11.034;2024-01-30T02:26:21;99546.03;;;-0.05;81.19
75627;BME280;67372;49.404;11.034;2024-01-30T02:28:48;99534.81;;;-0.07;82.03
75627;BME280;67372;49.404;11.034;2024-01-30T02:31:14;99528.13;;;-0.11;82.87
75627;BME280;67372;49.404;11.034;2024-01-30T02:33:40;99523.84;;;-0.12;83.15
75627;BME280;67372;49.404;11.034;2024-01-30T02:36:07;99531.13;;;-0.15;83.33
75627;BME280;67372;49.404;11.034;2024-01-30T02:38:33;99532.91;;;-0.16;83.30
75627;BME280;67372;49.404;11.034;2024-01-30T02:41:00;99541.50;;;-0.14;83.44
75627;BME280;67372;49.404;11.034;2024-01-30T02:43:26;99541.38;;;-0.12;82.55
75627;BME280;67372;49.404;11.034;2024-01-30T02:45:52;99537.78;;;-0.11;82.46
75627;BME280;67372;49.404;11.034;2024-01-30T02:48:19;99544.47;;;-0.07;81.89
75627;BME280;67372;49.404;11.034;2024-01-30T02:50:45;99545.91;;;-0.03;82.60
75627;BME280;67372;49.404;11.034;2024-01-30T02:53:12;99539.13;;;-0.06;83.85
75627;BME280;67372;49.404;11.034;2024-01-30T02:55:38;99529.81;;;-0.10;84.32
75627;BME280;67372;49.404;11.034;2024-01-30T02:58:04;99528.97;;;-0.10;84.43
75627;BME280;67372;49.404;11.034;2024-01-30T03:00:31;99525.41;;;-0.09;84.13
75627;BME280;67372;49.404;11.034;2024-01-30T03:02:57;99525.16;;;-0.06;83.43
75627;BME280;67372;49.404;11.034;2024-01-30T03:05:24;99527.56;;;-0.03;83.05
75627;BME280;67372;49.404;11.034;2024-01-30T03:07:50;99541.28;;;0.01;82.95
75627;BME280;67372;49.404;11.034;2024-01-30T03:10:17;99535.81;;;0.04;83.46
75627;BME280;67372;49.404;11.034;2024-01-30T03:12:43;99527.72;;;0.07;82.86
75627;BME280;67372;49.404;11.034;2024-01-30T03:15:10;99519.84;;;0.07;83.24
75627;BME280;67372;49.404;11.034;2024-01-30T03:17:36;99523.41;;;0.06;83.33
75627;BME280;67372;49.404;11.034;2024-01-30T03:20:04;99536.16;;;0.10;82.10
75627;BME280;67372;49.404;11.034;2024-01-30T03:22:30;99524.50;;;0.14;82.16
75627;BME280;67372;49.404;11.034;2024-01-30T03:24:57;99537.38;;;0.17;81.29
75627;BME280;67372;49.404;11.034;2024-01-30T03:27:23;99528.53;;;0.18;80.85
75627;BME280;67372;49.404;11.034;2024-01-30T03:29:49;99529.38;;;0.19;81.22
75627;BME280;67372;49.404;11.034;2024-01-30T03:32:16;99525.09;;;0.18;80.77
75627;BME280;67372;49.404;11.034;2024-01-30T03:34:42;99526.88;;;0.17;81.07
75627;BME280;67372;49.404;11.034;2024-01-30T03:37:09;99533.06;;;0.16;80.91
75627;BME280;67372;49.404;11.034;2024-01-30T03:39:35;99540.00;;;0.17;81.25
75627;BME280;67372;49.404;11.034;2024-01-30T03:42:02;99539.03;;;0.18;81.76
75627;BME280;67372;49.404;11.034;2024-01-30T03:44:28;99535.56;;;0.18;81.54
75627;BME280;67372;49.404;11.034;2024-01-30T03:46:54;99545.34;;;0.16;81.68
75627;BME280;67372;49.404;11.034;2024-01-30T03:49:21;99544.53;;;0.15;81.92
75627;BME280;67372;49.404;11.034;2024-01-30T03:51:47;99540.47;;;0.11;83.30
75627;BME280;67372;49.404;11.034;2024-01-30T03:54:14;99539.63;;;0.11;82.75
75627;BME280;67372;49.404;11.034;2024-01-30T03:56:40;99547.50;;;0.11;83.26
75627;BME280;67372;49.404;11.034;2024-01-30T03:59:07;99540.47;;;0.11;83.16
75627;BME280;67372;49.404;11.034;2024-01-30T04:01:33;99536.88;;;0.12;82.99
75627;BME280;67372;49.404;11.034;2024-01-30T04:04:00;99528.19;;;0.12;82.72
75627;BME280;67372;49.404;11.034;2024-01-30T04:06:26;99524.59;;;0.13;83.23
75627;BME280;67372;49.404;11.034;2024-01-30T04:08:53;99528.19;;;0.12;82.46
75627;BME280;67372;49.404;11.034;2024-01-30T04:11:19;99532.59;;;0.11;82.64
75627;BME280;67372;49.404;11.034;2024-01-30T04:13:45;99525.56;;;0.12;82.56
75627;BME280;67372;49.404;11.034;2024-01-30T04:16:22;99533.31;;;0.13;82.17
75627;BME280;67372;49.404;11.034;2024-01-30T04:18:49;99533.31;;;0.13;83.24
75627;BME280;67372;49.404;11.034;2024-01-30T04:21:15;99533.19;;;0.15;83.15
75627;BME280;67372;49.404;11.034;2024-01-30T04:23:42;99533.06;;;0.16;82.40
75627;BME280;67372;49.404;11.034;2024-01-30T04:26:08;99532.97;;;0.18;83.21
75627;BME280;67372;49.404;11.034;2024-01-30T04:28:35;99533.66;;;0.20;82.69
75627;BME280;67372;49.404;11.034;2024-01-30T04:31:01;99532.50;;;0.24;81.71
75627;BME280;67372;49.404;11.034;2024-01-30T04:33:28;99535.84;;;0.26;82.26
75627;BME280;67372;49.404;11.034;2024-01-30T04:35:54;99530.47;;;0.27;82.33
75627;BME280;67372;49.404;11.034;2024-01-30T04:38:21;99537.16;;;0.32;81.59
75627;BME280;67372;49.404;11.034;2024-01-30T04:40:47;99540.50;;;0.34;82.40
75627;BME280;67372;49.404;11.034;2024-01-30T04:43:14;99537.88;;;0.34;82.13
75627;BME280;67372;49.404;11.034;2024-01-30T04:45:40;99541.91;;;0.38;82.57
75627;BME280;67372;49.404;11.034;2024-01-30T04:48:07;99544.53;;;0.38;82.95
75627;BME280;67372;49.404;11.034;2024-01-30T04:50:33;99541.81;;;0.39;82.27
75627;BME280;67372;49.404;11.034;2024-01-30T04:53:00;99550.28;;;0.43;82.99
75627;BME280;67372;49.404;11.034;2024-01-30T04:55:26;99551.59;;;0.48;81.78
75627;BME280;67372;49.404;11.034;2024-01-30T04:57:52;99553.88;;;0.53;82.29
75627;BME280;67372;49.404;11.034;2024-01-30T05:00:19;99547.41;;;0.57;81.53
75627;BME280;67372;49.404;11.034;2024-01-30T05:02:45;99555.19;;;0.58;81.58
75627;BME280;67372;49.404;11.034;2024-01-30T05:05:14;99551.59;;;0.59;81.67
75627;BME280;67372;49.404;11.034;2024-01-30T05:07:41;99550.97;;;0.67;81.02
75627;BME280;67372;49.404;11.034;2024-01-30T05:10:08;99558.53;;;0.72;81.04
75627;BME280;67372;49.404;11.034;2024-01-30T05:12:34;99558.53;;;0.72;81.32
75627;BME280;67372;49.404;11.034;2024-01-30T05:15:01;99559.56;;;0.69;81.62
75627;BME280;67372;49.404;11.034;2024-01-30T05:17:28;99559.69;;;0.68;81.47
75627;BME280;67372;49.404;11.034;2024-01-30T05:19:54;99570.91;;;0.70;81.75
75627;BME280;67372;49.404;11.034;2024-01-30T05:22:21;99563.88;;;0.70;81.88
75627;BME280;67372;49.404;11.034;2024-01-30T05:24:47;99565.66;;;0.70;81.48
75627;BME280;67372;49.404;11.034;2024-01-30T05:27:14;99569.38;;;0.67;81.87
75627;BME280;67372;49.404;11.034;2024-01-30T05:29:40;99567.94;;;0.63;82.52
75627;BME280;67372;49.404;11.034;2024-01-30T05:32:06;99567.09;;;0.63;82.05
75627;BME280;67372;49.404;11.034;2024-01-30T05:34:33;99561.72;;;0.64;81.72
75627;BME280;67372;49.404;11.034;2024-01-30T05:36:59;99566.84;;;0.66;81.71
75627;BME280;67372;49.404;11.034;2024-01-30T05:39:26;99563.03;;;0.70;81.11
75627;BME280;67372;49.404;11.034;2024-01-30T05:41:52;99563.66;;;0.73;80.75
75627;BME280;67372;49.404;11.034;2024-01-30T05:44:19;99561.63;;;0.77;80.68
75627;BME280;67372;49.404;11.034;2024-01-30T05:46:45;99564.00;;;0.80;80.30
75627;BME280;67372;49.404;11.034;2024-01-30T05:49:11;99569.97;;;0.82;80.59
75627;BME280;67372;49.404;11.034;2024-01-30T05:51:38;99576.06;;;0.82;80.64
75627;BME280;67372;49.404;11.034;2024-01-30T05:54:04;99573.31;;;0.84;80.30
75627;BME280;67372;49.404;11.034;2024-01-30T05:56:30;99577.22;;;0.89;80.22
75627;BME280;67372;49.404;11.034;2024-01-30T05:58:57;99567.44;;;0.91;79.88
75627;BME280;67372;49.404;11.034;2024-01-30T06:01:23;99573.41;;;0.93;79.71
75627;BME280;67372;49.404;11.034;2024-01-30T06:03:50;99574.97;;;0.96;79.79
75627;BME280;67372;49.404;11.034;2024-01-30T06:06:16;99573.91;;;0.99;79.42
75627;BME280;67372;49.404;11.034;2024-01-30T06:08:43;99576.28;;;1.02;79.25
75627;BME280;67372;49.404;11.034;2024-01-30T06:11:11;99577.13;;;1.02;79.00
75627;BME280;67372;49.404;11.034;2024-01-30T06:13:37;99575.31;;;1.03;79.42
75627;BME280;67372;49.404;11.034;2024-01-30T06:16:04;99575.31;;;1.03;79.18
75627;BME280;67372;49.404;11.034;2024-01-30T06:18:30;99576.16;;;1.03;79.30
75627;BME280;67372;49.404;11.034;2024-01-30T06:20:56;99582.25;;;1.04;79.05
75627;BME280;67372;49.404;11.034;2024-01-30T06:23:23;99579.50;;;1.05;79.09
75627;BME280;67372;49.404;11.034;2024-01-30T06:25:49;99578.53;;;1.06;79.09
75627;BME280;67372;49.404;11.034;2024-01-30T06:28:16;99575.78;;;1.08;79.05
75627;BME280;67372;49.404;11.034;2024-01-30T06:30:42;99574.94;;;1.07;79.17
75627;BME280;67372;49.404;11.034;2024-01-30T06:33:11;99576.88;;;1.05;79.30
75627;BME280;67372;49.404;11.034;2024-01-30T06:35:38;99580.00;;;0.99;79.82
75627;BME280;67372;49.404;11.034;2024-01-30T06:38:07;99586.31;;;0.97;79.42
75627;BME280;67372;49.404;11.034;2024-01-30T06:40:34;99572.94;;;1.00;79.40
75627;BME280;67372;49.404;11.034;2024-01-30T06:43:00;99575.19;;;1.04;79.70
75627;BME280;67372;49.404;11.034;2024-01-30T06:45:27;99574.25;;;1.05;79.27
75627;BME280;67372;49.404;11.034;2024-01-30T06:47:53;99576.88;;;1.05;79.08
75627;BME280;67372;49.404;11.034;2024-01-30T06:50:20;99580.44;;;1.04;79.07
75627;BME280;67372;49.404;11.034;2024-01-30T06:52:46;99580.44;;;1.04;79.06
75627;BME280;67372;49.404;11.034;2024-01-30T06:55:13;99579.63;;;1.04;79.17
75627;BME280;67372;49.404;11.034;2024-01-30T06:57:39;99580.31;;;1.06;78.87
75627;BME280;67372;49.404;11.034;2024-01-30T07:00:06;99585.59;;;1.06;79.10
75627;BME280;67372;49.404;11.034;2024-01-30T07:02:33;99582.94;;;1.06;78.95
75627;BME280;67372;49.404;11.034;2024-01-30T07:04:59;99581.03;;;1.08;79.06
75627;BME280;67372;49.404;11.034;2024-01-30T07:07:26;99583.53;;;1.09;79.05
75627;BME280;67372;49.404;11.034;2024-01-30T07:09:52;99591.75;;;1.16;79.01
75627;BME280;67372;49.404;11.034;2024-01-30T07:12:18;99594.75;;;1.22;78.78
75627;BME280;67372;49.404;11.034;2024-01-30T07:14:45;99593.44;;;1.28;78.84
75627;BME280;67372;49.404;11.034;2024-01-30T07:17:11;99589.47;;;1.34;78.62
75627;BME280;67372;49.404;11.034;2024-01-30T07:19:38;99595.06;;;1.40;78.13
75627;BME280;67372;49.404;11.034;2024-01-30T07:22:04;99600.81;;;1.45;78.19
75627;BME280;67372;49.404;11.034;2024-01-30T07:24:31;99600.03;;;1.54;78.24
75627;BME280;67372;49.404;11.034;2024-01-30T07:26:57;99600.50;;;1.60;77.74
75627;BME280;67372;49.404;11.034;2024-01-30T07:29:24;99601.91;;;1.64;77.80
75627;BME280;67372;49.404;11.034;2024-01-30T07:31:50;99604.41;;;1.65;77.54
75627;BME280;67372;49.404;11.034;2024-01-30T07:34:17;99614.59;;;1.70;77.75
75627;BME280;67372;49.404;11.034;2024-01-30T07:36:43;99612.28;;;1.76;77.74
75627;BME280;67372;49.404;11.034;2024-01-30T07:39:10;99607.34;;;1.83;77.67
75627;BME280;67372;49.404;11.034;2024-01-30T07:41:36;99611.03;;;1.92;78.67
75627;BME280;67372;49.404;11.034;2024-01-30T07:44:02;99612.38;;;2.07;77.79
75627;BME280;67372;49.404;11.034;2024-01-30T07:46:29;99607.06;;;2.18;77.14
75627;BME280;67372;49.404;11.034;2024-01-30T07:48:55;99612.09;;;2.21;76.23
75627;BME280;67372;49.404;11.034;2024-01-30T09:10:11;99617.97;;;4.71;70.03
75627;BME280;67372;49.404;11.034;2024-01-30T09:36:51;99625.56;;;5.48;67.30
75627;BME280;67372;49.404;11.034;2024-01-30T09:39:18;99621.94;;;5.67;67.33
75627;BME280;67372;49.404;11.034;2024-01-30T09:41:48;99626.44;;;5.84;65.67
75627;BME280;67372;49.404;11.034;2024-01-30T09:44:20;99625.13;;;5.98;65.56
75627;BME280;67372;49.404;11.034;2024-01-30T09:46:47;99614.28;;;6.09;66.21
75627;BME280;67372;49.404;11.034;2024-01-30T09:49:13;99612.09;;;6.22;66.10
75627;BME280;67372;49.404;11.034;2024-01-30T09:51:43;99624.09;;;6.34;65.95
75627;BME280;67372;49.404;11.034;2024-01-30T09:54:10;99622.19;;;6.44;64.13
75627;BME280;67372;49.404;11.034;2024-01-30T09:56:37;99618.75;;;6.52;65.01
75627;BME280;67372;49.404;11.034;2024-01-30T09:59:03;99622.69;;;6.66;65.08
75627;BME280;67372;49.404;11.034;2024-01-30T10:01:30;99616.09;;;6.78;65.06
75627;BME280;67372;49.404;11.034;2024-01-30T10:03:57;99610.16;;;6.84;64.27
75627;BME280;67372;49.404;11.034;2024-01-30T10:06:24;99605.84;;;6.83;64.18
75627;BME280;67372;49.404;11.034;2024-01-30T10:08:51;99603.75;;;6.87;64.19
75627;BME280;67372;49.404;11.034;2024-01-30T10:11:18;99601.44;;;6.92;63.21
75627;BME280;67372;49.404;11.034;2024-01-30T10:13:44;99603.78;;;6.95;62.02
75627;BME280;67372;49.404;11.034;2024-01-30T10:16:13;99604.28;;;6.98;62.66
75627;BME280;67372;49.404;11.034;2024-01-30T10:18:41;99607.13;;;7.05;62.88
75627;BME280;67372;49.404;11.034;2024-01-30T10:21:10;99611.66;;;7.13;62.71
75627;BME280;67372;49.404;11.034;2024-01-30T10:23:38;99609.72;;;7.31;63.49
75627;BME280;67372;49.404;11.034;2024-01-30T10:26:07;99608.28;;;7.45;62.49
75627;BME280;67372;49.404;11.034;2024-01-30T10:28:34;99607.66;;;7.59;62.66
75627;BME280;67372;49.404;11.034;2024-01-30T10:31:01;99609.69;;;7.73;62.39
75627;BME280;67372;49.404;11.034;2024-01-30T10:33:32;99608.69;;;7.74;61.39
75627;BME280;67372;49.404;11.034;2024-01-30T10:36:05;99609.84;;;7.80;61.02
75627;BME280;67372;49.404;11.034;2024-01-30T10:38:32;99604.56;;;7.88;62.60
75627;BME280;67372;49.404;11.034;2024-01-30T10:41:02;99593.59;;;7.91;60.10
75627;BME280;67372;49.404;11.034;2024-01-30T10:43:35;99601.56;;;7.99;60.98
75627;BME280;67372;49.404;11.034;2024-01-30T10:46:18;99596.13;;;8.09;59.88
75627;BME280;67372;49.404;11.034;2024-01-30T10:48:50;99592.28;;;8.11;59.10
75627;BME280;67372;49.404;11.034;2024-01-30T10:51:23;99589.97;;;8.16;61.36
75627;BME280;67372;49.404;11.034;2024-01-30T10:53:50;99585.81;;;8.30;60.30
75627;BME280;67372;49.404;11.034;2024-01-30T11:01:34;99588.13;;;8.57;60.95
75627;BME280;67372;49.404;11.034;2024-01-30T11:06:43;99591.56;;;8.74;59.23
75627;BME280;67372;49.404;11.034;2024-01-30T11:09:12;99592.91;;;8.78;59.57
75627;BME280;67372;49.404;11.034;2024-01-30T11:11:52;99593.75;;;8.71;58.70
75627;BME280;67372;49.404;11.034;2024-01-30T11:14:26;99587.91;;;8.75;58.82
75627;BME280;67372;49.404;11.034;2024-01-30T11:16:52;99586.25;;;8.82;59.24
75627;BME280;67372;49.404;11.034;2024-01-30T11:19:25;99588.03;;;8.90;57.13
75627;BME280;67372;49.404;11.034;2024-01-30T11:21:53;99585.88;;;8.93;57.92
75627;BME280;67372;49.404;11.034;2024-01-30T11:24:20;99585.53;;;8.97;58.91
75627;BME280;67372;49.404;11.034;2024-01-30T11:26:55;99569.91;;;8.93;57.34
75627;BME280;67372;49.404;11.034;2024-01-30T11:29:27;99573.56;;;9.01;58.79
75627;BME280;67372;49.404;11.034;2024-01-30T11:31:54;99574.50;;;9.08;58.42
75627;BME280;67372;49.404;11.034;2024-01-30T13:16:34;99481.63;;;10.42;56.60
75627;BME280;67372;49.404;11.034;2024-01-30T13:29:41;99490.25;;;10.59;56.30
75627;BME280;67372;49.404;11.034;2024-01-30T13:59:01;99488.31;;;10.53;56.18
75627;BME280;67372;49.404;11.034;2024-01-30T14:04:08;99490.53;;;10.49;56.21
75627;BME280;67372;49.404;11.034;2024-01-30T14:06:38;99481.53;;;10.50;56.09
75627;BME280;67372;49.404;11.034;2024-01-30T14:49:41;99497.16;;;10.01;58.12
75627;BME280;67372;49.404;11.034;2024-01-30T14:54:49;99501.38;;;9.95;58.67
75627;BME280;67372;49.404;11.034;2024-01-30T15:05:21;99513.53;;;9.75;58.97
75627;BME280;67372;49.404;11.034;2024-01-30T15:07:47;99506.72;;;9.72;59.37
75627;BME280;67372;49.404;11.034;2024-01-30T15:10:13;99510.41;;;9.71;58.89
75627;BME280;67372;49.404;11.034;2024-01-30T15:12:40;99505.06;;;9.71;58.82
75627;BME280;67372;49.404;11.034;2024-01-30T15:15:07;99509.91;;;9.68;59.02
75627;BME280;67372;49.404;11.034;2024-01-30T15:17:35;99508.97;;;9.61;59.97
75627;BME280;67372;49.404;11.034;2024-01-30T15:35:45;99520.16;;;9.33;59.48
75627;BME280;67372;49.404;11.034;2024-01-30T15:38:12;99517.84;;;9.22;60.26
75627;BME280;67372;49.404;11.034;2024-01-30T15:40:39;99524.59;;;9.10;61.26
75627;BME280;67372;49.404;11.034;2024-01-30T15:43:05;99522.47;;;8.97;61.40
75627;BME280;67372;49.404;11.034;2024-01-30T15:45:31;99519.69;;;8.90;61.77
75627;BME280;67372;49.404;11.034;2024-01-30T15:47:58;99526.19;;;8.88;61.90
75627;BME280;67372;49.404;11.034;2024-01-30T15:50:24;99528.38;;;8.84;61.50
75627;BME280;67372;49.404;11.034;2024-01-30T15:52:51;99528.88;;;8.80;62.10
75627;BME280;67372;49.404;11.034;2024-01-30T15:55:17;99534.88;;;8.74;62.19
75627;BME280;67372;49.404;11.034;2024-01-30T15:57:44;99531.91;;;8.69;61.35
75627;BME280;67372;49.404;11.034;2024-01-30T16:00:11;99535.91;;;8.65;62.38
75627;BME280;67372;49.404;11.034;2024-01-30T16:02:38;99541.91;;;8.58;62.13
75627;BME280;67372;49.404;11.034;2024-01-30T16:05:05;99544.44;;;8.52;61.83
75627;BME280;67372;49.404;11.034;2024-01-30T16:07:31;99544.09;;;8.47;62.48
75627;BME280;67372;49.404;11.034;2024-01-30T16:09:58;99553.41;;;8.43;62.30
75627;BME280;67372;49.404;11.034;2024-01-30T16:12:24;99552.44;;;8.36;62.90
75627;BME280;67372;49.404;11.034;2024-01-30T16:14:50;99554.09;;;8.28;62.77
75627;BME280;67372;49.404;11.034;2024-01-30T16:17:17;99552.72;;;8.24;62.71
75627;BME280;67372;49.404;11.034;2024-01-30T16:19:43;99559.22;;;8.22;62.78
75627;BME280;67372;49.404;11.034;2024-01-30T16:27:27;99561.91;;;8.06;63.55
75627;BME280;67372;49.404;11.034;2024-01-30T16:29:53;99565.88;;;8.01;63.18
75627;BME280;67372;49.404;11.034;2024-01-30T16:32:19;99566.38;;;7.97;63.65
75627;BME280;67372;49.404;11.034;2024-01-30T16:34:46;99556.75;;;7.88;64.09
75627;BME280;67372;49.404;11.034;2024-01-30T16:37:12;99556.59;;;7.81;64.54
75627;BME280;67372;49.404;11.034;2024-01-30T16:39:39;99559.88;;;7.75;64.57
75627;BME280;67372;49.404;11.034;2024-01-30T18:09:09;99605.50;;;6.52;69.67
75627;BME280;67372;49.404;11.034;2024-01-30T18:54:39;99619.72;;;6.07;70.92
75627;BME280;67372;49.404;11.034;2024-01-30T20:09:16;99666.13;;;5.94;70.82
75627;BME280;67372;49.404;11.034;2024-01-30T20:11:42;99668.78;;;5.94;71.01
75627;BME280;67372;49.404;11.034;2024-01-30T20:14:08;99663.63;;;5.92;71.34
75627;BME280;67372;49.404;11.034;2024-01-30T20:16:39;99664.59;;;5.91;71.08
75627;BME280;67372;49.404;11.034;2024-01-30T20:19:06;99668.22;;;5.90;71.01
75627;BME280;67372;49.404;11.034;2024-01-30T20:21:36;99673.09;;;5.95;71.63
75627;BME280;67372;49.404;11.034;2024-01-30T20:24:04;99675.97;;;6.01;70.98
75627;BME280;67372;49.404;11.034;2024-01-30T20:26:31;99667.25;;;6.09;70.92
75627;BME280;67372;49.404;11.034;2024-01-30T20:28:58;99660.41;;;6.16;70.64
75627;BME280;67372;49.404;11.034;2024-01-30T20:31:25;99667.19;;;6.19;70.58
75627;BME280;67372;49.404;11.034;2024-01-30T20:33:52;99674.16;;;6.20;70.74
75627;BME280;67372;49.404;11.034;2024-01-30T20:36:18;99663.16;;;6.14;70.69
75627;BME280;67372;49.404;11.034;2024-01-30T20:38:45;99674.69;;;6.05;70.33
75627;BME280;67372;49.404;11.034;2024-01-30T20:41:12;99675.28;;;5.99;70.75
75627;BME280;67372;49.404;11.034;2024-01-30T20:43:38;99669.47;;;5.96;70.57
75627;BME280;67372;49.404;11.034;2024-01-30T20:46:05;99671.00;;;5.89;71.39
75627;BME280;67372;49.404;11.034;2024-01-30T20:48:32;99675.91;;;5.83;71.36
75627;BME280;67372;49.404;11.034;2024-01-30T20:51:00;99667.44;;;5.80;71.15
75627;BME280;67372;49.404;11.034;2024-01-30T20:53:26;99670.91;;;5.80;71.38
75627;BME280;67372;49.404;11.034;2024-01-30T20:55:53;99665.63;;;5.80;71.76
75627;BME280;67372;49.404;11.034;2024-01-30T20:58:19;99660.19;;;5.82;71.70
75627;BME280;67372;49.404;11.034;2024-01-30T21:00:45;99668.50;;;5.87;71.54
75627;BME280;67372;49.404;11.034;2024-01-30T21:03:12;99665.56;;;5.90;71.41
75627;BME280;67372;49.404;11.034;2024-01-30T21:05:38;99667.13;;;5.93;71.41
75627;BME280;67372;49.404;11.034;2024-01-30T21:08:05;99664.31;;;5.94;71.37
75627;BME280;67372;49.404;11.034;2024-01-30T21:10:32;99668.63;;;5.95;71.40
75627;BME280;67372;49.404;11.034;2024-01-30T21:12:58;99675.44;;;5.98;70.98
75627;BME280;67372;49.404;11.034;2024-01-30T21:15:25;99668.31;;;5.98;71.24
75627;BME280;67372;49.404;11.034;2024-01-30T21:17:51;99677.09;;;5.99;70.87
75627;BME280;67372;49.404;11.034;2024-01-30T21:20:18;99681.28;;;6.01;70.80
75627;BME280;67372;49.404;11.034;2024-01-30T21:22:45;99681.94;;;6.03;71.40
75627;BME280;67372;49.404;11.034;2024-01-30T21:25:12;99683.59;;;6.04;71.28
75627;BME280;67372;49.404;11.034;2024-01-30T21:27:39;99682.47;;;6.07;71.06
75627;BME280;67372;49.404;11.034;2024-01-30T21:30:06;99684.44;;;6.05;70.97
75627;BME280;67372;49.404;11.034;2024-01-30T21:32:32;99685.88;;;5.99;71.02
75627;BME280;67372;49.404;11.034;2024-01-30T21:34:59;99685.06;;;5.99;71.69
75627;BME280;67372;49.404;11.034;2024-01-30T21:37:25;99684.06;;;6.00;71.87
75627;BME280;67372;49.404;11.034;2024-01-30T21:39:52;99689.38;;;6.00;71.34
75627;BME280;67372;49.404;11.034;2024-01-30T21:42:18;99683.09;;;6.01;71.50
75627;BME280;67372;49.404;11.034;2024-01-30T21:44:45;99681.94;;;6.03;71.07